sensor_id;sensor_type;location;lat;lon;timestamp;temperature;humidity
11908;DHT22;6014;47.690;9.130;2023-03-01T00:01:29;1.30;99.90
11908;DHT22;6014;47.690;9.130;2023-03-01T00:03:58;1.40;99.90
11908;DHT22;6014;47.690;9.130;2023-03-01T00:06:27;1.40;99.90
11908;DHT22;6014;47.690;9.130;2023-03-01T00:08:56;1.50;99.90
11908;DHT22;6014;47.690;9.130;2023-03-01T00:11:33;1.40;99.90
11908;DHT22;6014;47.690;9.130;2023-03-01T00:14:02;1.50;99.90
11908;DHT22;6014;47.690;9.130;2023-03-01T00:16:35;1.40;99.90
11908;DHT22;6014;47.690;9.130;2023-03-01T00:19:05;1.50;99.90
11908;DHT22;6014;47.690;9.130;2023-03-01T00:21:34;1.50;99.90
11908;DHT22;6014;47.690;9.130;2023-03-01T00:24:09;1.50;99.90
11908;DHT22;6014;47.690;9.130;2023-03-01T00:26:38;1.50;99.90
11908;DHT22;6014;47.690;9.130;2023-03-01T00:29:06;1.50;99.90
11908;DHT22;6014;47.690;9.130;2023-03-01T00:31:34;1.50;99.90
11908;DHT22;6014;47.690;9.130;2023-03-01T00:34:04;1.60;99.90
11908;DHT22;6014;47.690;9.130;2023-03-01T00:36:35;1.60;99.90
11908;DHT22;6014;47.690;9.130;2023-03-01T00:39:21;1.60;99.90
11908;DHT22;6014;47.690;9.130;2023-03-01T00:41:51;1.60;99.90
11908;DHT22;6014;47.690;9.130;2023-03-01T00:44:19;1.50;99.90
11908;DHT22;6014;47.690;9.130;2023-03-01T00:46:47;1.60;99.90
11908;DHT22;6014;47.690;9.130;2023-03-01T00:49:15;1.60;99.90
11908;DHT22;6014;47.690;9.130;2023-03-01T00:51:43;1.60;99.90
11908;DHT22;6014;47.690;9.130;2023-03-01T00:54:11;1.60;99.90
11908;DHT22;6014;47.690;9.130;2023-03-01T00:56:40;1.60;99.90
11908;DHT22;6014;47.690;9.130;2023-03-01T00:59:10;1.60;99.90
11908;DHT22;6014;47.690;9.130;2023-03-01T01:01:38;1.60;99.90
11908;DHT22;6014;47.690;9.130;2023-03-01T01:04:10;1.60;99.90
11908;DHT22;6014;47.690;9.130;2023-03-01T01:06:55;1.60;99.90
11908;DHT22;6014;47.690;9.130;2023-03-01T01:09:31;1.60;99.90
11908;DHT22;6014;47.690;9.130;2023-03-01T01:12:01;1.70;99.90
11908;DHT22;6014;47.690;9.130;2023-03-01T01:14:31;1.60;99.90
11908;DHT22;6014;47.690;9.130;2023-03-01T01:17:00;1.50;99.90
11908;DHT22;6014;47.690;9.130;2023-03-01T01:19:28;1.50;99.90
11908;DHT22;6014;47.690;9.130;2023-03-01T01:22:01;1.60;99.90
11908;DHT22;6014;47.690;9.130;2023-03-01T01:24:29;1.60;99.90
11908;DHT22;6014;47.690;9.130;2023-03-01T01:27:09;1.60;99.90
11908;DHT22;6014;47.690;9.130;2023-03-01T01:29:43;1.60;99.90
11908;DHT22;6014;47.690;9.130;2023-03-01T01:32:12;1.70;99.90
11908;DHT22;6014;47.690;9.130;2023-03-01T01:35:00;1.70;99.90
11908;DHT22;6014;47.690;9.130;2023-03-01T01:37:28;1.70;99.90
11908;DHT22;6014;47.690;9.130;2023-03-01T01:39:59;1.70;99.90
11908;DHT22;6014;47.690;9.130;2023-03-01T01:42:27;1.70;99.90
11908;DHT22;6014;47.690;9.130;2023-03-01T01:45:28;1.60;99.90
11908;DHT22;6014;47.690;9.130;2023-03-01T01:48:02;1.70;99.90
11908;DHT22;6014;47.690;9.130;2023-03-01T01:50:32;1.70;99.90
11908;DHT22;6014;47.690;9.130;2023-03-01T01:53:10;1.70;99.90
11908;DHT22;6014;47.690;9.130;2023-03-01T01:55:49;1.70;99.90
11908;DHT22;6014;47.690;9.130;2023-03-01T01:58:30;1.70;99.90
11908;DHT22;6014;47.690;9.130;2023-03-01T02:01:15;1.70;99.90
11908;DHT22;6014;47.690;9.130;2023-03-01T02:03:44;1.70;99.90
11908;DHT22;6014;47.690;9.130;2023-03-01T02:06:18;1.70;99.90
11908;DHT22;6014;47.690;9.130;2023-03-01T02:08:48;1.70;99.90
11908;DHT22;6014;47.690;9.130;2023-03-01T02:11:18;1.70;99.90
11908;DHT22;6014;47.690;9.130;2023-03-01T02:13:47;1.70;99.90
11908;DHT22;6014;47.690;9.130;2023-03-01T02:16:17;1.70;99.90
11908;DHT22;6014;47.690;9.130;2023-03-01T02:18:59;1.60;99.90
11908;DHT22;6014;47.690;9.130;2023-03-01T02:21:38;1.60;99.90
11908;DHT22;6014;47.690;9.130;2023-03-01T02:24:18;1.70;99.90
11908;DHT22;6014;47.690;9.130;2023-03-01T02:26:53;1.60;99.90
11908;DHT22;6014;47.690;9.130;2023-03-01T02:29:24;1.60;99.90
11908;DHT22;6014;47.690;9.130;2023-03-01T02:31:53;1.70;99.90
11908;DHT22;6014;47.690;9.130;2023-03-01T02:34:24;1.70;99.90
11908;DHT22;6014;47.690;9.130;2023-03-01T02:36:55;1.70;99.90
11908;DHT22;6014;47.690;9.130;2023-03-01T02:39:31;1.70;99.90
11908;DHT22;6014;47.690;9.130;2023-03-01T02:42:02;1.80;99.90
11908;DHT22;6014;47.690;9.130;2023-03-01T02:44:33;1.70;99.90
11908;DHT22;6014;47.690;9.130;2023-03-01T02:47:03;1.70;99.90
11908;DHT22;6014;47.690;9.130;2023-03-01T02:49:34;1.70;99.90
11908;DHT22;6014;47.690;9.130;2023-03-01T02:52:21;1.70;99.90
11908;DHT22;6014;47.690;9.130;2023-03-01T02:54:58;1.70;99.90
11908;DHT22;6014;47.690;9.130;2023-03-01T02:57:27;1.70;99.90
11908;DHT22;6014;47.690;9.130;2023-03-01T03:00:02;1.70;99.90
11908;DHT22;6014;47.690;9.130;2023-03-01T03:02:48;1.70;99.90
11908;DHT22;6014;47.690;9.130;2023-03-01T03:05:18;1.70;99.90
11908;DHT22;6014;47.690;9.130;2023-03-01T03:07:47;1.70;99.90
11908;DHT22;6014;47.690;9.130;2023-03-01T03:10:19;1.70;99.90
11908;DHT22;6014;47.690;9.130;2023-03-01T03:12:52;1.70;99.90
11908;DHT22;6014;47.690;9.130;2023-03-01T03:15:22;1.70;99.90
11908;DHT22;6014;47.690;9.130;2023-03-01T03:17:51;1.70;99.90
11908;DHT22;6014;47.690;9.130;2023-03-01T03:20:22;1.70;99.90
11908;DHT22;6014;47.690;9.130;2023-03-01T03:22:52;1.70;99.90
11908;DHT22;6014;47.690;9.130;2023-03-01T03:25:21;1.70;99.90
11908;DHT22;6014;47.690;9.130;2023-03-01T03:28:00;1.70;99.90
11908;DHT22;6014;47.690;9.130;2023-03-01T03:30:31;1.70;99.90
11908;DHT22;6014;47.690;9.130;2023-03-01T03:33:00;1.70;99.90
11908;DHT22;6014;47.690;9.130;2023-03-01T03:35:29;1.70;99.90
11908;DHT22;6014;47.690;9.130;2023-03-01T03:38:01;1.60;99.90
11908;DHT22;6014;47.690;9.130;2023-03-01T03:40:32;1.60;99.90
11908;DHT22;6014;47.690;9.130;2023-03-01T03:43:01;1.60;99.90
11908;DHT22;6014;47.690;9.130;2023-03-01T03:46:03;1.60;99.90
11908;DHT22;6014;47.690;9.130;2023-03-01T03:48:38;1.60;99.90
11908;DHT22;6014;47.690;9.130;2023-03-01T03:51:16;1.60;99.90
11908;DHT22;6014;47.690;9.130;2023-03-01T03:53:44;1.60;99.90
11908;DHT22;6014;47.690;9.130;2023-03-01T03:56:13;1.60;99.90
11908;DHT22;6014;47.690;9.130;2023-03-01T03:58:41;1.60;99.90
11908;DHT22;6014;47.690;9.130;2023-03-01T04:01:12;1.60;99.90
11908;DHT22;6014;47.690;9.130;2023-03-01T04:03:40;1.60;99.90
11908;DHT22;6014;47.690;9.130;2023-03-01T04:06:13;1.60;99.90
11908;DHT22;6014;47.690;9.130;2023-03-01T04:08:41;1.60;99.90
11908;DHT22;6014;47.690;9.130;2023-03-01T04:11:09;1.60;99.90
11908;DHT22;6014;47.690;9.130;2023-03-01T04:13:57;1.60;99.90
11908;DHT22;6014;47.690;9.130;2023-03-01T04:16:28;1.60;99.90
11908;DHT22;6014;47.690;9.130;2023-03-01T04:18:56;1.60;99.90
11908;DHT22;6014;47.690;9.130;2023-03-01T04:21:26;1.60;99.90
11908;DHT22;6014;47.690;9.130;2023-03-01T04:23:54;1.50;99.90
11908;DHT22;6014;47.690;9.130;2023-03-01T04:26:22;1.50;99.90
11908;DHT22;6014;47.690;9.130;2023-03-01T04:28:50;1.50;99.90
11908;DHT22;6014;47.690;9.130;2023-03-01T04:31:19;1.50;99.90
11908;DHT22;6014;47.690;9.130;2023-03-01T04:33:51;1.50;99.90
11908;DHT22;6014;47.690;9.130;2023-03-01T04:36:22;1.50;99.90
11908;DHT22;6014;47.690;9.130;2023-03-01T04:38:51;1.50;99.90
11908;DHT22;6014;47.690;9.130;2023-03-01T04:41:22;1.50;99.90
11908;DHT22;6014;47.690;9.130;2023-03-01T04:43:50;1.50;99.90
11908;DHT22;6014;47.690;9.130;2023-03-01T04:46:27;1.50;99.90
11908;DHT22;6014;47.690;9.130;2023-03-01T04:48:57;1.50;99.90
11908;DHT22;6014;47.690;9.130;2023-03-01T04:51:25;1.40;99.90
11908;DHT22;6014;47.690;9.130;2023-03-01T04:53:55;1.40;99.90
11908;DHT22;6014;47.690;9.130;2023-03-01T04:56:23;1.50;99.90
11908;DHT22;6014;47.690;9.130;2023-03-01T04:58:53;1.50;99.90
11908;DHT22;6014;47.690;9.130;2023-03-01T05:01:21;1.50;99.90
11908;DHT22;6014;47.690;9.130;2023-03-01T05:03:50;1.40;99.90
11908;DHT22;6014;47.690;9.130;2023-03-01T05:06:21;1.50;99.90
11908;DHT22;6014;47.690;9.130;2023-03-01T05:08:49;1.50;99.90
11908;DHT22;6014;47.690;9.130;2023-03-01T05:11:17;1.50;99.90
11908;DHT22;6014;47.690;9.130;2023-03-01T05:13:45;1.40;99.90
11908;DHT22;6014;47.690;9.130;2023-03-01T05:16:13;1.50;99.90
11908;DHT22;6014;47.690;9.130;2023-03-01T05:18:41;1.50;99.90
11908;DHT22;6014;47.690;9.130;2023-03-01T05:21:11;1.50;99.90
11908;DHT22;6014;47.690;9.130;2023-03-01T05:23:41;1.50;99.90
11908;DHT22;6014;47.690;9.130;2023-03-01T05:26:09;1.50;99.90
11908;DHT22;6014;47.690;9.130;2023-03-01T05:28:59;1.40;99.90
11908;DHT22;6014;47.690;9.130;2023-03-01T05:31:28;1.40;99.90
11908;DHT22;6014;47.690;9.130;2023-03-01T05:33:57;1.40;99.90
11908;DHT22;6014;47.690;9.130;2023-03-01T05:36:25;1.50;99.90
11908;DHT22;6014;47.690;9.130;2023-03-01T05:38:55;1.50;99.90
11908;DHT22;6014;47.690;9.130;2023-03-01T05:41:23;1.50;99.90
11908;DHT22;6014;47.690;9.130;2023-03-01T05:43:51;1.50;99.90
11908;DHT22;6014;47.690;9.130;2023-03-01T05:46:20;1.40;99.90
11908;DHT22;6014;47.690;9.130;2023-03-01T05:48:51;1.40;99.90
11908;DHT22;6014;47.690;9.130;2023-03-01T05:51:19;1.50;99.90
11908;DHT22;6014;47.690;9.130;2023-03-01T05:53:48;1.40;99.90
11908;DHT22;6014;47.690;9.130;2023-03-01T05:56:18;1.40;99.90
11908;DHT22;6014;47.690;9.130;2023-03-01T05:58:47;1.40;99.90
11908;DHT22;6014;47.690;9.130;2023-03-01T06:01:15;1.40;99.90
11908;DHT22;6014;47.690;9.130;2023-03-01T06:03:44;1.40;99.90
11908;DHT22;6014;47.690;9.130;2023-03-01T06:06:12;1.40;99.90
11908;DHT22;6014;47.690;9.130;2023-03-01T06:08:40;1.50;99.90
11908;DHT22;6014;47.690;9.130;2023-03-01T06:11:08;1.50;99.90
11908;DHT22;6014;47.690;9.130;2023-03-01T06:13:37;1.50;99.90
11908;DHT22;6014;47.690;9.130;2023-03-01T06:16:06;1.40;99.90
11908;DHT22;6014;47.690;9.130;2023-03-01T06:18:37;1.50;99.90
11908;DHT22;6014;47.690;9.130;2023-03-01T06:21:06;1.40;99.90
11908;DHT22;6014;47.690;9.130;2023-03-01T06:23:35;1.40;99.90
11908;DHT22;6014;47.690;9.130;2023-03-01T06:26:08;1.40;99.90
11908;DHT22;6014;47.690;9.130;2023-03-01T06:28:38;1.50;99.90
11908;DHT22;6014;47.690;9.130;2023-03-01T06:31:06;1.50;99.90
11908;DHT22;6014;47.690;9.130;2023-03-01T06:33:35;1.40;99.90
11908;DHT22;6014;47.690;9.130;2023-03-01T06:36:05;1.50;99.90
11908;DHT22;6014;47.690;9.130;2023-03-01T06:38:33;1.40;99.90
11908;DHT22;6014;47.690;9.130;2023-03-01T06:41:01;1.50;99.90
11908;DHT22;6014;47.690;9.130;2023-03-01T06:43:29;1.50;99.90
11908;DHT22;6014;47.690;9.130;2023-03-01T06:45:59;1.40;99.90
11908;DHT22;6014;47.690;9.130;2023-03-01T06:48:27;1.50;99.90
11908;DHT22;6014;47.690;9.130;2023-03-01T06:50:58;1.50;99.90
11908;DHT22;6014;47.690;9.130;2023-03-01T06:53:26;1.50;99.90
11908;DHT22;6014;47.690;9.130;2023-03-01T06:55:55;1.50;99.90
11908;DHT22;6014;47.690;9.130;2023-03-01T06:58:23;1.50;99.90
11908;DHT22;6014;47.690;9.130;2023-03-01T07:00:51;1.50;99.90
11908;DHT22;6014;47.690;9.130;2023-03-01T07:03:20;1.50;99.90
11908;DHT22;6014;47.690;9.130;2023-03-01T07:05:49;1.50;99.90
11908;DHT22;6014;47.690;9.130;2023-03-01T07:08:19;1.50;99.90
11908;DHT22;6014;47.690;9.130;2023-03-01T07:10:47;1.50;99.90
11908;DHT22;6014;47.690;9.130;2023-03-01T07:13:18;1.50;99.90
11908;DHT22;6014;47.690;9.130;2023-03-01T07:15:46;1.50;99.90
11908;DHT22;6014;47.690;9.130;2023-03-01T07:18:14;1.50;99.90
11908;DHT22;6014;47.690;9.130;2023-03-01T07:20:43;1.50;99.90
11908;DHT22;6014;47.690;9.130;2023-03-01T07:23:11;1.50;99.90
11908;DHT22;6014;47.690;9.130;2023-03-01T07:25:39;1.60;99.90
11908;DHT22;6014;47.690;9.130;2023-03-01T07:28:07;1.50;99.90
11908;DHT22;6014;47.690;9.130;2023-03-01T07:30:35;1.60;99.90
11908;DHT22;6014;47.690;9.130;2023-03-01T07:33:03;1.60;99.90
11908;DHT22;6014;47.690;9.130;2023-03-01T07:35:32;1.70;99.90
11908;DHT22;6014;47.690;9.130;2023-03-01T07:38:01;1.60;99.90
11908;DHT22;6014;47.690;9.130;2023-03-01T07:40:29;1.60;99.90
11908;DHT22;6014;47.690;9.130;2023-03-01T07:42:58;1.70;99.90
11908;DHT22;6014;47.690;9.130;2023-03-01T07:45:28;1.60;99.90
11908;DHT22;6014;47.690;9.130;2023-03-01T07:47:56;1.80;99.90
11908;DHT22;6014;47.690;9.130;2023-03-01T07:50:24;1.60;99.90
11908;DHT22;6014;47.690;9.130;2023-03-01T07:52:52;1.60;99.90
11908;DHT22;6014;47.690;9.130;2023-03-01T07:55:21;1.60;99.90
11908;DHT22;6014;47.690;9.130;2023-03-01T07:57:49;1.60;99.90
11908;DHT22;6014;47.690;9.130;2023-03-01T08:00:18;1.60;99.90
11908;DHT22;6014;47.690;9.130;2023-03-01T08:02:46;1.60;99.90
11908;DHT22;6014;47.690;9.130;2023-03-01T08:05:14;1.70;99.90
11908;DHT22;6014;47.690;9.130;2023-03-01T08:07:42;1.70;99.90
11908;DHT22;6014;47.690;9.130;2023-03-01T08:10:11;1.60;99.90
11908;DHT22;6014;47.690;9.130;2023-03-01T08:12:40;1.60;99.90
11908;DHT22;6014;47.690;9.130;2023-03-01T08:15:09;1.80;99.90
11908;DHT22;6014;47.690;9.130;2023-03-01T08:17:37;1.70;99.90
11908;DHT22;6014;47.690;9.130;2023-03-01T08:20:06;1.70;99.90
11908;DHT22;6014;47.690;9.130;2023-03-01T08:22:34;1.70;99.90
11908;DHT22;6014;47.690;9.130;2023-03-01T08:25:02;1.70;99.90
11908;DHT22;6014;47.690;9.130;2023-03-01T08:27:30;1.80;99.90
11908;DHT22;6014;47.690;9.130;2023-03-01T08:30:00;1.80;99.90
11908;DHT22;6014;47.690;9.130;2023-03-01T08:32:28;1.80;99.90
11908;DHT22;6014;47.690;9.130;2023-03-01T08:34:56;1.80;99.90
11908;DHT22;6014;47.690;9.130;2023-03-01T08:37:24;1.80;99.90
11908;DHT22;6014;47.690;9.130;2023-03-01T08:42:44;1.80;99.90
11908;DHT22;6014;47.690;9.130;2023-03-01T08:45:13;1.80;99.90
11908;DHT22;6014;47.690;9.130;2023-03-01T08:47:44;1.80;99.90
11908;DHT22;6014;47.690;9.130;2023-03-01T08:50:12;1.90;99.90
11908;DHT22;6014;47.690;9.130;2023-03-01T08:52:40;1.90;99.90
11908;DHT22;6014;47.690;9.130;2023-03-01T08:55:09;1.90;99.90
11908;DHT22;6014;47.690;9.130;2023-03-01T08:57:41;1.90;99.90
11908;DHT22;6014;47.690;9.130;2023-03-01T09:00:10;1.90;99.90
11908;DHT22;6014;47.690;9.130;2023-03-01T09:02:42;1.90;99.90
11908;DHT22;6014;47.690;9.130;2023-03-01T09:05:10;2.00;99.90
11908;DHT22;6014;47.690;9.130;2023-03-01T09:07:38;2.00;99.90
11908;DHT22;6014;47.690;9.130;2023-03-01T09:10:15;2.00;99.90
11908;DHT22;6014;47.690;9.130;2023-03-01T09:12:48;2.00;99.90
11908;DHT22;6014;47.690;9.130;2023-03-01T09:15:18;2.00;99.90
11908;DHT22;6014;47.690;9.130;2023-03-01T09:17:47;2.00;99.90
11908;DHT22;6014;47.690;9.130;2023-03-01T09:20:16;2.10;99.90
11908;DHT22;6014;47.690;9.130;2023-03-01T09:22:44;2.00;99.90
11908;DHT22;6014;47.690;9.130;2023-03-01T09:25:25;2.10;99.90
11908;DHT22;6014;47.690;9.130;2023-03-01T09:27:54;2.10;99.90
11908;DHT22;6014;47.690;9.130;2023-03-01T09:30:22;2.00;99.90
11908;DHT22;6014;47.690;9.130;2023-03-01T09:33:00;2.00;99.90
11908;DHT22;6014;47.690;9.130;2023-03-01T09:35:28;2.00;99.90
11908;DHT22;6014;47.690;9.130;2023-03-01T09:37:56;2.00;99.90
11908;DHT22;6014;47.690;9.130;2023-03-01T09:40:26;2.00;99.90
11908;DHT22;6014;47.690;9.130;2023-03-01T09:43:01;2.00;99.90
11908;DHT22;6014;47.690;9.130;2023-03-01T09:45:35;2.00;99.90
11908;DHT22;6014;47.690;9.130;2023-03-01T09:48:07;2.00;99.90
11908;DHT22;6014;47.690;9.130;2023-03-01T09:50:41;2.00;99.90
11908;DHT22;6014;47.690;9.130;2023-03-01T09:53:23;2.00;99.90
11908;DHT22;6014;47.690;9.130;2023-03-01T09:56:02;2.00;99.90
11908;DHT22;6014;47.690;9.130;2023-03-01T09:58:47;2.10;99.90
11908;DHT22;6014;47.690;9.130;2023-03-01T10:01:29;2.10;99.90
11908;DHT22;6014;47.690;9.130;2023-03-01T10:04:09;2.20;99.90
11908;DHT22;6014;47.690;9.130;2023-03-01T10:06:44;2.20;99.90
11908;DHT22;6014;47.690;9.130;2023-03-01T10:09:24;2.10;99.90
11908;DHT22;6014;47.690;9.130;2023-03-01T10:11:54;2.30;99.90
11908;DHT22;6014;47.690;9.130;2023-03-01T10:14:29;2.30;99.90
11908;DHT22;6014;47.690;9.130;2023-03-01T10:16:59;2.30;99.90
11908;DHT22;6014;47.690;9.130;2023-03-01T10:19:36;2.30;99.90
11908;DHT22;6014;47.690;9.130;2023-03-01T10:22:13;2.30;99.90
11908;DHT22;6014;47.690;9.130;2023-03-01T10:24:41;2.30;99.90
11908;DHT22;6014;47.690;9.130;2023-03-01T10:27:15;2.30;99.90
11908;DHT22;6014;47.690;9.130;2023-03-01T10:29:50;2.20;99.90
11908;DHT22;6014;47.690;9.130;2023-03-01T10:32:21;2.30;99.90
11908;DHT22;6014;47.690;9.130;2023-03-01T10:34:52;2.30;99.90
11908;DHT22;6014;47.690;9.130;2023-03-01T10:37:30;2.40;99.90
11908;DHT22;6014;47.690;9.130;2023-03-01T10:40:20;2.50;99.90
11908;DHT22;6014;47.690;9.130;2023-03-01T10:42:49;2.50;99.90
11908;DHT22;6014;47.690;9.130;2023-03-01T10:45:30;2.50;99.90
11908;DHT22;6014;47.690;9.130;2023-03-01T10:48:09;2.40;99.90
11908;DHT22;6014;47.690;9.130;2023-03-01T10:50:48;2.40;99.90
11908;DHT22;6014;47.690;9.130;2023-03-01T10:53:25;2.40;99.90
11908;DHT22;6014;47.690;9.130;2023-03-01T10:56:04;2.40;99.90
11908;DHT22;6014;47.690;9.130;2023-03-01T10:58:34;2.40;99.90
11908;DHT22;6014;47.690;9.130;2023-03-01T11:01:25;2.40;99.90
11908;DHT22;6014;47.690;9.130;2023-03-01T11:04:11;2.40;99.90
11908;DHT22;6014;47.690;9.130;2023-03-01T11:06:46;2.40;99.90
11908;DHT22;6014;47.690;9.130;2023-03-01T11:09:25;2.40;99.90
11908;DHT22;6014;47.690;9.130;2023-03-01T11:11:55;2.40;99.90
11908;DHT22;6014;47.690;9.130;2023-03-01T11:14:25;2.50;99.90
11908;DHT22;6014;47.690;9.130;2023-03-01T11:17:01;2.40;99.90
11908;DHT22;6014;47.690;9.130;2023-03-01T11:19:31;2.50;99.90
11908;DHT22;6014;47.690;9.130;2023-03-01T11:22:04;2.60;99.90
11908;DHT22;6014;47.690;9.130;2023-03-01T11:24:39;2.50;99.90
11908;DHT22;6014;47.690;9.130;2023-03-01T11:27:17;2.50;99.90
11908;DHT22;6014;47.690;9.130;2023-03-01T11:29:50;2.50;99.90
11908;DHT22;6014;47.690;9.130;2023-03-01T11:32:23;2.50;99.90
11908;DHT22;6014;47.690;9.130;2023-03-01T11:34:56;2.50;99.90
11908;DHT22;6014;47.690;9.130;2023-03-01T11:37:33;2.50;99.90
11908;DHT22;6014;47.690;9.130;2023-03-01T11:40:12;2.50;99.90
11908;DHT22;6014;47.690;9.130;2023-03-01T11:42:49;2.40;99.90
11908;DHT22;6014;47.690;9.130;2023-03-01T11:45:23;2.40;99.90
11908;DHT22;6014;47.690;9.130;2023-03-01T11:48:03;2.50;99.90
11908;DHT22;6014;47.690;9.130;2023-03-01T11:50:39;2.60;99.90
11908;DHT22;6014;47.690;9.130;2023-03-01T11:53:38;2.50;99.90
11908;DHT22;6014;47.690;9.130;2023-03-01T11:56:21;2.60;99.90
11908;DHT22;6014;47.690;9.130;2023-03-01T11:59:12;2.70;99.90
11908;DHT22;6014;47.690;9.130;2023-03-01T12:01:51;2.70;99.90
11908;DHT22;6014;47.690;9.130;2023-03-01T12:07:17;2.70;99.90
11908;DHT22;6014;47.690;9.130;2023-03-01T12:10:07;2.60;99.90
11908;DHT22;6014;47.690;9.130;2023-03-01T12:12:56;2.60;99.90
11908;DHT22;6014;47.690;9.130;2023-03-01T12:15:39;2.70;99.90
11908;DHT22;6014;47.690;9.130;2023-03-01T12:18:40;2.70;99.90
11908;DHT22;6014;47.690;9.130;2023-03-01T12:21:20;2.70;99.90
11908;DHT22;6014;47.690;9.130;2023-03-01T12:24:07;2.60;99.90
11908;DHT22;6014;47.690;9.130;2023-03-01T12:26:53;2.60;99.90
11908;DHT22;6014;47.690;9.130;2023-03-01T12:29:34;2.60;99.90
11908;DHT22;6014;47.690;9.130;2023-03-01T12:32:21;2.70;99.90
11908;DHT22;6014;47.690;9.130;2023-03-01T12:35:06;2.70;99.90
11908;DHT22;6014;47.690;9.130;2023-03-01T12:37:50;2.70;99.90
11908;DHT22;6014;47.690;9.130;2023-03-01T12:40:43;2.60;99.90
11908;DHT22;6014;47.690;9.130;2023-03-01T12:43:24;2.60;99.90
11908;DHT22;6014;47.690;9.130;2023-03-01T12:46:06;2.80;99.90
11908;DHT22;6014;47.690;9.130;2023-03-01T12:48:46;2.80;99.90
11908;DHT22;6014;47.690;9.130;2023-03-01T12:51:19;2.70;99.90
11908;DHT22;6014;47.690;9.130;2023-03-01T12:53:50;2.80;99.90
11908;DHT22;6014;47.690;9.130;2023-03-01T12:56:21;2.80;99.90
11908;DHT22;6014;47.690;9.130;2023-03-01T12:58:57;2.80;99.90
11908;DHT22;6014;47.690;9.130;2023-03-01T13:01:35;2.90;99.90
11908;DHT22;6014;47.690;9.130;2023-03-01T13:04:23;2.90;99.90
11908;DHT22;6014;47.690;9.130;2023-03-01T13:07:02;3.00;99.90
11908;DHT22;6014;47.690;9.130;2023-03-01T13:09:37;2.90;99.90
11908;DHT22;6014;47.690;9.130;2023-03-01T13:15:25;3.00;99.90
11908;DHT22;6014;47.690;9.130;2023-03-01T13:18:03;2.90;99.90
11908;DHT22;6014;47.690;9.130;2023-03-01T13:20:46;3.00;99.90
11908;DHT22;6014;47.690;9.130;2023-03-01T13:23:25;3.00;99.90
11908;DHT22;6014;47.690;9.130;2023-03-01T13:26:06;2.90;99.90
11908;DHT22;6014;47.690;9.130;2023-03-01T13:28:41;2.90;99.90
11908;DHT22;6014;47.690;9.130;2023-03-01T13:34:50;3.00;99.90
11908;DHT22;6014;47.690;9.130;2023-03-01T13:37:43;3.00;99.90
11908;DHT22;6014;47.690;9.130;2023-03-01T13:43:28;3.00;99.90
11908;DHT22;6014;47.690;9.130;2023-03-01T13:45:57;3.00;99.90
11908;DHT22;6014;47.690;9.130;2023-03-01T13:48:28;3.00;99.90
11908;DHT22;6014;47.690;9.130;2023-03-01T13:51:13;3.00;99.90
11908;DHT22;6014;47.690;9.130;2023-03-01T13:53:45;3.00;99.90
11908;DHT22;6014;47.690;9.130;2023-03-01T13:56:16;3.00;99.90
11908;DHT22;6014;47.690;9.130;2023-03-01T13:58:50;2.90;99.90
11908;DHT22;6014;47.690;9.130;2023-03-01T14:01:25;3.00;99.90
11908;DHT22;6014;47.690;9.130;2023-03-01T14:03:54;2.90;99.90
11908;DHT22;6014;47.690;9.130;2023-03-01T14:06:26;3.10;99.90
11908;DHT22;6014;47.690;9.130;2023-03-01T14:09:04;3.10;99.90
11908;DHT22;6014;47.690;9.130;2023-03-01T14:12:21;3.10;99.90
11908;DHT22;6014;47.690;9.130;2023-03-01T14:14:58;3.00;99.90
11908;DHT22;6014;47.690;9.130;2023-03-01T14:17:51;3.00;99.90
11908;DHT22;6014;47.690;9.130;2023-03-01T14:20:23;3.00;99.90
11908;DHT22;6014;47.690;9.130;2023-03-01T14:23:09;3.10;99.90
11908;DHT22;6014;47.690;9.130;2023-03-01T14:25:46;3.00;99.90
11908;DHT22;6014;47.690;9.130;2023-03-01T14:28:17;3.10;99.90
11908;DHT22;6014;47.690;9.130;2023-03-01T14:30:46;3.10;99.90
11908;DHT22;6014;47.690;9.130;2023-03-01T14:33:21;3.10;99.90
11908;DHT22;6014;47.690;9.130;2023-03-01T14:35:56;3.10;99.90
11908;DHT22;6014;47.690;9.130;2023-03-01T14:38:32;3.10;99.90
11908;DHT22;6014;47.690;9.130;2023-03-01T14:41:03;3.10;99.90
11908;DHT22;6014;47.690;9.130;2023-03-01T14:43:33;3.10;99.90
11908;DHT22;6014;47.690;9.130;2023-03-01T14:46:01;3.10;99.90
11908;DHT22;6014;47.690;9.130;2023-03-01T14:48:31;3.10;99.90
11908;DHT22;6014;47.690;9.130;2023-03-01T14:50:59;3.10;99.90
11908;DHT22;6014;47.690;9.130;2023-03-01T14:53:30;3.20;99.90
11908;DHT22;6014;47.690;9.130;2023-03-01T14:56:16;3.20;99.90
11908;DHT22;6014;47.690;9.130;2023-03-01T14:58:45;3.20;99.90
11908;DHT22;6014;47.690;9.130;2023-03-01T15:01:16;3.20;99.90
11908;DHT22;6014;47.690;9.130;2023-03-01T15:03:47;3.00;99.90
11908;DHT22;6014;47.690;9.130;2023-03-01T15:06:18;3.10;99.90
11908;DHT22;6014;47.690;9.130;2023-03-01T15:08:50;3.10;99.90
11908;DHT22;6014;47.690;9.130;2023-03-01T15:11:22;2.90;99.90
11908;DHT22;6014;47.690;9.130;2023-03-01T15:13:52;3.00;99.90
11908;DHT22;6014;47.690;9.130;2023-03-01T15:16:23;3.00;99.90
11908;DHT22;6014;47.690;9.130;2023-03-01T15:18:55;3.10;99.90
11908;DHT22;6014;47.690;9.130;2023-03-01T15:21:25;3.20;99.90
11908;DHT22;6014;47.690;9.130;2023-03-01T15:23:58;3.20;99.90
11908;DHT22;6014;47.690;9.130;2023-03-01T15:29:38;3.20;99.90
11908;DHT22;6014;47.690;9.130;2023-03-01T15:32:28;3.30;99.90
11908;DHT22;6014;47.690;9.130;2023-03-01T15:34:58;3.20;99.90
11908;DHT22;6014;47.690;9.130;2023-03-01T15:37:40;3.20;99.90
11908;DHT22;6014;47.690;9.130;2023-03-01T15:40:25;3.20;99.90
11908;DHT22;6014;47.690;9.130;2023-03-01T15:42:58;3.20;99.90
11908;DHT22;6014;47.690;9.130;2023-03-01T15:45:28;3.10;99.90
11908;DHT22;6014;47.690;9.130;2023-03-01T15:47:57;3.10;99.90
11908;DHT22;6014;47.690;9.130;2023-03-01T15:50:30;3.20;99.90
11908;DHT22;6014;47.690;9.130;2023-03-01T15:53:00;3.10;99.90
11908;DHT22;6014;47.690;9.130;2023-03-01T15:55:31;3.20;99.90
11908;DHT22;6014;47.690;9.130;2023-03-01T15:58:01;3.20;99.90
11908;DHT22;6014;47.690;9.130;2023-03-01T16:00:36;3.20;99.90
11908;DHT22;6014;47.690;9.130;2023-03-01T16:03:23;3.20;99.90
11908;DHT22;6014;47.690;9.130;2023-03-01T16:05:51;3.30;99.90
11908;DHT22;6014;47.690;9.130;2023-03-01T16:08:21;3.20;99.90
11908;DHT22;6014;47.690;9.130;2023-03-01T16:10:50;3.20;99.90
11908;DHT22;6014;47.690;9.130;2023-03-01T16:13:21;3.10;99.90
11908;DHT22;6014;47.690;9.130;2023-03-01T16:15:57;3.10;99.90
11908;DHT22;6014;47.690;9.130;2023-03-01T16:18:25;3.00;99.90
11908;DHT22;6014;47.690;9.130;2023-03-01T16:20:53;3.00;99.90
11908;DHT22;6014;47.690;9.130;2023-03-01T16:23:21;3.00;99.90
11908;DHT22;6014;47.690;9.130;2023-03-01T16:25:54;2.90;99.90
11908;DHT22;6014;47.690;9.130;2023-03-01T16:28:22;2.80;99.90
11908;DHT22;6014;47.690;9.130;2023-03-01T16:30:50;2.90;99.90
11908;DHT22;6014;47.690;9.130;2023-03-01T16:33:20;2.80;99.90
11908;DHT22;6014;47.690;9.130;2023-03-01T16:35:59;2.80;99.90
11908;DHT22;6014;47.690;9.130;2023-03-01T16:38:31;2.90;99.90
11908;DHT22;6014;47.690;9.130;2023-03-01T16:41:00;2.90;99.90
11908;DHT22;6014;47.690;9.130;2023-03-01T16:43:29;2.80;99.90
11908;DHT22;6014;47.690;9.130;2023-03-01T16:45:57;2.80;99.90
11908;DHT22;6014;47.690;9.130;2023-03-01T16:48:26;2.80;99.90
11908;DHT22;6014;47.690;9.130;2023-03-01T16:50:58;2.70;99.90
11908;DHT22;6014;47.690;9.130;2023-03-01T16:53:27;2.60;99.90
11908;DHT22;6014;47.690;9.130;2023-03-01T16:55:55;2.60;99.90
11908;DHT22;6014;47.690;9.130;2023-03-01T16:58:25;2.50;99.90